createdAt,value
2018-03-03T00:00:55.046Z,49.27
2018-03-03T00:03:23.408Z,48.20
2018-03-03T00:05:53.856Z,45.60
2018-03-03T00:08:22.954Z,46.77
2018-03-03T00:10:52.139Z,45.43
2018-03-03T00:13:21.246Z,45.00
2018-03-03T00:15:49.534Z,47.87
2018-03-03T00:18:20.593Z,45.87
2018-03-03T00:20:50.827Z,47.37
2018-03-03T00:23:19.977Z,45.33
2018-03-03T00:25:49.954Z,45.40
2018-03-03T00:28:18.364Z,47.60
2018-03-03T00:30:46.737Z,43.57
2018-03-03T00:33:17.707Z,45.20
2018-03-03T00:35:46.908Z,44.67
2018-03-03T00:38:15.290Z,42.80
2018-03-03T00:40:43.670Z,42.37
2018-03-03T00:43:11.987Z,45.93
2018-03-03T00:45:40.366Z,48.07
2018-03-03T00:48:10.312Z,48.80
2018-03-03T00:50:41.297Z,46.13
2018-03-03T00:53:11.569Z,47.03
2018-03-03T00:55:42.307Z,45.97
2018-03-03T00:58:10.629Z,44.37
2018-03-03T01:00:39.686Z,43.37
2018-03-03T01:03:10.569Z,41.87
2018-03-03T01:05:38.921Z,42.60
2018-03-03T01:08:07.328Z,44.23
2018-03-03T01:10:35.635Z,45.67
2018-03-03T01:13:04.031Z,43.40
2018-03-03T01:15:32.516Z,42.63
2018-03-03T01:18:00.962Z,42.73
2018-03-03T01:20:29.268Z,44.50
2018-03-03T01:22:57.590Z,44.70
2018-03-03T01:25:26.729Z,44.80
2018-03-03T01:27:55.257Z,44.03
2018-03-03T01:30:23.557Z,45.73
2018-03-03T01:32:51.884Z,46.97
2018-03-03T01:35:20.359Z,49.00
2018-03-03T01:37:48.658Z,51.30
2018-03-03T01:40:17.023Z,51.50
2018-03-03T01:42:45.324Z,49.80
2018-03-03T01:45:13.710Z,49.47
2018-03-03T01:47:42.068Z,52.77
2018-03-03T01:50:10.473Z,51.33
2018-03-03T01:52:41.506Z,51.77
2018-03-03T01:55:11.556Z,52.57
2018-03-03T01:57:39.938Z,48.37
2018-03-03T02:00:08.246Z,49.53
2018-03-03T02:02:36.658Z,51.50
2018-03-03T02:05:05.740Z,49.97
2018-03-03T02:07:34.795Z,49.70
2018-03-03T02:10:03.208Z,52.73
2018-03-03T02:12:31.528Z,51.07
2018-03-03T02:15:01.644Z,51.47
2018-03-03T02:17:30.031Z,50.43
2018-03-03T02:19:59.955Z,47.47
2018-03-03T02:22:28.339Z,50.40
2018-03-03T02:24:56.846Z,49.87
2018-03-03T02:27:25.342Z,48.30
2018-03-03T02:29:56.782Z,48.87
2018-03-03T02:32:25.392Z,50.63
2018-03-03T02:34:53.766Z,48.90
2018-03-03T02:37:22.224Z,49.87
2018-03-03T02:39:50.601Z,49.90
2018-03-03T02:42:22.319Z,54.77
2018-03-03T02:44:51.416Z,51.40
2018-03-03T02:47:19.778Z,52.67
2018-03-03T02:49:48.275Z,52.50
2018-03-03T02:52:16.757Z,51.10
2018-03-03T02:54:45.115Z,54.53
2018-03-03T02:57:13.411Z,53.30
2018-03-03T02:59:42.047Z,52.67
2018-03-03T03:02:11.120Z,52.73
2018-03-03T03:04:39.466Z,51.17
2018-03-03T03:07:07.786Z,51.77
2018-03-03T03:09:36.063Z,50.00
2018-03-03T03:12:04.399Z,49.87
2018-03-03T03:14:32.715Z,48.40
2018-03-03T03:17:01.805Z,47.70
2018-03-03T03:19:30.125Z,52.10
2018-03-03T03:21:58.482Z,48.23
2018-03-03T03:24:29.785Z,52.43
2018-03-03T03:26:58.140Z,49.93
2018-03-03T03:29:26.493Z,50.00
2018-03-03T03:31:57.516Z,48.40
2018-03-03T03:34:25.897Z,48.40
2018-03-03T03:36:54.200Z,52.00
2018-03-03T03:39:23.275Z,52.70
2018-03-03T03:41:51.601Z,53.73
2018-03-03T03:44:22.082Z,47.13
2018-03-03T03:46:52.815Z,50.97
2018-03-03T03:49:22.113Z,49.27
2018-03-03T03:51:50.590Z,52.17
2018-03-03T03:54:19.817Z,51.30
2018-03-03T03:56:49.019Z,47.33
2018-03-03T03:59:18.417Z,50.07
2018-03-03T04:01:46.751Z,49.93
2018-03-03T04:04:15.167Z,66.07
2018-03-03T04:06:44.531Z,57.60
2018-03-03T04:09:12.841Z,53.97
2018-03-03T04:11:41.196Z,55.43
2018-03-03T04:14:12.289Z,53.90
2018-03-03T04:16:42.483Z,51.97
2018-03-03T04:19:11.757Z,53.23
2018-03-03T04:21:41.782Z,51.07
2018-03-03T04:24:10.153Z,54.57
2018-03-03T04:26:40.214Z,50.50
2018-03-03T04:29:10.426Z,51.80
2018-03-03T04:31:40.409Z,52.20
2018-03-03T04:34:08.741Z,48.10
2018-03-03T04:36:39.531Z,48.87
2018-03-03T04:39:09.749Z,53.27
2018-03-03T04:41:40.747Z,54.10
2018-03-03T04:44:09.221Z,49.60
2018-03-03T04:46:37.493Z,48.67
2018-03-03T04:49:05.975Z,51.33
2018-03-03T04:51:36.752Z,50.80
2018-03-03T04:54:06.806Z,51.27
2018-03-03T04:56:36.891Z,50.90
2018-03-03T05:13:15.548Z,50.90
2018-03-03T05:15:44.459Z,49.03
2018-03-03T05:21:33.075Z,55.60
2018-03-03T05:24:06.976Z,53.57
2018-03-03T05:26:42.845Z,53.03
2018-03-03T05:32:50.574Z,56.20
2018-03-03T05:38:31.395Z,54.23
2018-03-03T05:44:14.321Z,59.93
2018-03-03T05:46:47.934Z,52.53
2018-03-03T05:49:23.630Z,50.97
2018-03-03T05:52:03.805Z,50.57
2018-03-03T05:54:38.117Z,46.50
2018-03-03T06:00:17.258Z,50.83
2018-03-03T06:03:00.430Z,50.40
2018-03-03T06:05:33.173Z,46.50
2018-03-03T06:21:47.338Z,46.97
2018-03-03T06:24:15.887Z,50.57
2018-03-03T06:26:44.199Z,51.47
2018-03-03T06:29:12.871Z,48.70
2018-03-03T06:31:42.172Z,50.87
2018-03-03T06:34:10.527Z,52.53
2018-03-03T06:36:41.580Z,47.87
2018-03-03T06:39:09.958Z,52.00
2018-03-03T06:41:39.293Z,47.93
2018-03-03T06:44:07.628Z,49.30
2018-03-03T06:46:36.004Z,45.80
2018-03-03T06:49:04.384Z,48.63
2018-03-03T06:51:32.700Z,47.83
2018-03-03T06:54:01.860Z,46.97
2018-03-03T06:56:30.442Z,49.00
2018-03-03T06:59:00.570Z,51.83
2018-03-03T07:01:29.148Z,52.30
2018-03-03T07:03:57.838Z,50.00
2018-03-03T07:06:26.944Z,48.70
2018-03-03T07:08:55.497Z,50.27
2018-03-03T07:11:23.863Z,48.70
2018-03-03T07:13:52.180Z,51.00
2018-03-03T07:16:20.539Z,49.17
2018-03-03T07:18:50.652Z,49.53
2018-03-03T07:21:18.996Z,50.17
2018-03-03T07:23:48.099Z,50.90
2018-03-03T07:26:16.401Z,49.20
2018-03-03T07:28:44.740Z,52.90
2018-03-03T07:31:13.065Z,51.80
2018-03-03T07:33:41.405Z,54.97
2018-03-03T07:36:10.485Z,55.10
2018-03-03T07:38:40.549Z,43.40
2018-03-03T07:41:09.128Z,49.27
2018-03-03T07:43:37.458Z,55.27
2018-03-03T07:46:06.000Z,50.60
2018-03-03T07:48:38.472Z,51.20
2018-03-03T07:51:08.718Z,50.97
2018-03-03T07:53:37.068Z,53.60
2018-03-03T07:56:05.450Z,53.57
2018-03-03T07:58:45.408Z,52.60
2018-03-03T08:01:14.880Z,50.97
2018-03-03T08:03:43.307Z,52.77
2018-03-03T08:06:13.384Z,53.27
2018-03-03T08:08:42.464Z,52.10
2018-03-03T08:11:10.771Z,53.30
2018-03-03T08:13:39.166Z,52.73
2018-03-03T08:16:10.914Z,47.27
2018-03-03T08:18:39.320Z,36.23
2018-03-03T08:21:09.405Z,49.43
2018-03-03T08:23:37.859Z,53.13
2018-03-03T08:26:06.245Z,52.23
2018-03-03T08:28:36.816Z,48.50
2018-03-03T08:31:05.281Z,52.60
2018-03-03T08:33:34.483Z,48.97
2018-03-03T08:36:04.895Z,50.93
2018-03-03T08:38:35.551Z,51.37
2018-03-03T08:41:04.099Z,55.87
2018-03-03T08:43:32.759Z,54.20
2018-03-03T08:46:03.748Z,49.57
2018-03-03T08:48:32.124Z,53.23
2018-03-03T08:51:00.544Z,48.33
2018-03-03T08:53:29.839Z,49.90
2018-03-03T08:55:58.219Z,51.67
2018-03-03T08:58:26.535Z,52.57
2018-03-03T09:00:54.885Z,48.67
2018-03-03T09:03:23.315Z,50.60
2018-03-03T09:05:51.786Z,52.97
2018-03-03T09:08:22.316Z,44.30
2018-03-03T09:10:52.993Z,51.37
2018-03-03T09:13:21.335Z,52.00
2018-03-03T09:15:49.711Z,49.50
2018-03-03T09:18:18.850Z,51.07
2018-03-03T09:20:47.210Z,51.70
2018-03-03T09:23:15.659Z,54.20
2018-03-03T09:25:46.211Z,55.20
2018-03-03T09:28:14.574Z,56.83
2018-03-03T09:30:42.897Z,55.60
2018-03-03T09:33:11.513Z,55.97
2018-03-03T09:35:43.367Z,53.60
2018-03-03T09:38:14.811Z,54.23
2018-03-03T09:40:44.210Z,54.97
2018-03-03T09:43:14.356Z,57.33
2018-03-03T09:45:42.898Z,54.10
2018-03-03T09:48:11.425Z,54.30
2018-03-03T09:50:41.535Z,56.63
2018-03-03T09:53:11.154Z,54.40
2018-03-03T09:55:39.482Z,53.67
2018-03-03T09:58:07.865Z,53.97
2018-03-03T10:00:36.206Z,54.47
2018-03-03T10:03:06.613Z,52.87
2018-03-03T10:05:39.952Z,63.10
2018-03-03T10:08:10.245Z,56.60
2018-03-03T10:10:38.726Z,51.07
2018-03-03T10:13:08.678Z,54.17
2018-03-03T10:15:37.107Z,53.60
2018-03-03T10:18:07.641Z,55.13
2018-03-03T10:20:41.119Z,46.80
2018-03-03T10:23:09.551Z,55.80
2018-03-03T10:25:40.518Z,49.30
2018-03-03T10:28:09.637Z,55.33
2018-03-03T10:30:38.969Z,53.47
2018-03-03T10:33:07.473Z,55.90
2018-03-03T10:35:35.941Z,52.20
2018-03-03T10:38:05.658Z,58.20
2018-03-03T10:40:35.460Z,55.30
2018-03-03T10:43:06.555Z,53.27
2018-03-03T10:45:37.995Z,51.23
2018-03-03T10:48:07.474Z,55.53
2018-03-03T10:50:39.919Z,52.63
2018-03-03T10:53:08.424Z,55.47
2018-03-03T10:55:36.975Z,51.47
2018-03-03T10:58:06.031Z,48.17
2018-03-03T11:00:37.866Z,55.97
2018-03-03T11:03:06.312Z,54.27
2018-03-03T11:05:35.602Z,54.00
2018-03-03T11:08:05.664Z,47.87
2018-03-03T11:10:34.065Z,47.07
2018-03-03T11:13:02.414Z,49.10
2018-03-03T11:15:30.813Z,46.90
2018-03-03T11:17:59.950Z,48.83
2018-03-03T11:20:28.244Z,50.67
2018-03-03T11:22:56.613Z,48.97
2018-03-03T11:25:26.685Z,51.03
2018-03-03T11:27:55.839Z,46.70
2018-03-03T11:30:24.230Z,48.70
2018-03-03T11:32:55.230Z,49.10
2018-03-03T11:35:23.531Z,51.77
2018-03-03T11:37:51.893Z,49.77
2018-03-03T11:40:20.267Z,43.90
2018-03-03T11:42:50.489Z,47.63
2018-03-03T11:45:19.910Z,50.83
2018-03-03T11:47:50.072Z,49.53
2018-03-03T11:50:18.534Z,48.63
2018-03-03T11:52:46.844Z,53.13
2018-03-03T11:55:17.117Z,53.07
2018-03-03T11:57:48.000Z,39.60
2018-03-03T12:00:16.350Z,48.57
2018-03-03T12:02:45.416Z,49.43
2018-03-03T12:05:13.828Z,47.53
2018-03-03T12:07:42.392Z,47.50
2018-03-03T12:10:10.717Z,43.60
2018-03-03T12:12:39.092Z,49.80
2018-03-03T12:15:07.469Z,48.87
2018-03-03T12:17:36.875Z,50.20
2018-03-03T12:20:05.219Z,43.83
2018-03-03T12:22:33.570Z,44.87
2018-03-03T12:25:04.493Z,47.10
2018-03-03T12:27:33.665Z,47.70
2018-03-03T12:30:01.992Z,49.17
2018-03-03T12:32:30.438Z,46.73
2018-03-03T12:34:59.040Z,47.13
2018-03-03T12:37:27.382Z,49.33
2018-03-03T12:39:55.712Z,47.10
2018-03-03T12:42:24.009Z,45.97
2018-03-03T12:44:52.394Z,44.20
2018-03-03T12:47:20.716Z,43.27
2018-03-03T12:49:49.147Z,45.37
2018-03-03T12:52:17.607Z,46.87
2018-03-03T12:54:45.961Z,47.20
2018-03-03T12:57:14.351Z,46.60
2018-03-03T12:59:42.679Z,49.13
2018-03-03T13:02:11.002Z,39.40
2018-03-03T13:04:39.620Z,51.20
2018-03-03T13:07:08.099Z,46.90
2018-03-03T13:09:36.438Z,44.97
2018-03-03T13:12:09.012Z,45.73
2018-03-03T13:14:37.386Z,51.20
2018-03-03T13:17:05.791Z,47.57
2018-03-03T13:19:34.254Z,41.57
2018-03-03T13:22:02.607Z,54.97
2018-03-03T13:24:30.939Z,49.63
2018-03-03T13:26:59.244Z,45.90
2018-03-03T13:29:27.596Z,46.10
2018-03-03T13:31:55.977Z,44.80
2018-03-03T13:34:24.336Z,45.33
2018-03-03T13:36:55.431Z,40.20
2018-03-03T13:39:23.763Z,39.93
2018-03-03T13:41:52.082Z,37.70
2018-03-03T13:44:21.292Z,39.90
2018-03-03T13:46:49.726Z,35.17
2018-03-03T13:49:20.749Z,36.80
2018-03-03T13:51:49.208Z,38.87
2018-03-03T13:54:18.311Z,38.47
2018-03-03T13:56:46.764Z,36.93
2018-03-03T13:59:15.122Z,39.43
2018-03-03T14:01:43.510Z,39.13
2018-03-03T14:04:11.910Z,36.33
2018-03-03T14:06:42.721Z,38.73
2018-03-03T14:09:15.608Z,33.23
2018-03-03T14:11:47.143Z,34.23
2018-03-03T14:14:15.545Z,38.30
2018-03-03T14:16:45.797Z,37.30
2018-03-03T14:19:19.475Z,36.57
2018-03-03T14:21:49.926Z,34.23
2018-03-03T14:24:18.238Z,34.70
2018-03-03T14:26:46.609Z,34.23
2018-03-03T14:29:14.987Z,33.17
2018-03-03T14:31:45.248Z,32.70
2018-03-03T14:34:15.919Z,35.60
2018-03-03T14:36:44.299Z,33.83
2018-03-03T14:39:12.773Z,36.37
2018-03-03T14:41:41.183Z,36.97
2018-03-03T14:44:09.535Z,35.77
2018-03-03T14:46:37.978Z,36.30
2018-03-03T14:49:08.911Z,33.40
2018-03-03T14:51:39.306Z,35.30
2018-03-03T14:54:11.716Z,33.27
2018-03-03T14:56:41.804Z,35.60
2018-03-03T14:59:10.217Z,33.20
2018-03-03T15:01:38.528Z,33.07
2018-03-03T15:04:08.551Z,34.20
2018-03-03T15:06:36.927Z,31.13
2018-03-03T15:09:05.273Z,30.30
2018-03-03T15:11:35.341Z,34.73
2018-03-03T15:14:06.445Z,34.97
2018-03-03T15:16:36.722Z,34.80
2018-03-03T15:19:06.882Z,31.47
2018-03-03T15:21:35.219Z,31.33
2018-03-03T15:24:05.243Z,33.37
2018-03-03T15:26:33.633Z,32.23
2018-03-03T15:29:02.013Z,31.07
2018-03-03T15:31:30.355Z,29.33
2018-03-03T15:34:00.523Z,29.70
2018-03-03T15:36:30.615Z,31.33
2018-03-03T15:39:01.883Z,30.90
2018-03-03T15:41:30.396Z,28.93
2018-03-03T15:44:00.534Z,30.90
2018-03-03T15:46:28.949Z,30.43
2018-03-03T15:48:57.313Z,33.30
2018-03-03T15:51:28.448Z,32.73
2018-03-03T15:53:56.801Z,33.80
2018-03-03T15:56:25.152Z,31.33
2018-03-03T15:58:55.172Z,33.47
2018-03-03T16:01:24.836Z,33.00
2018-03-03T16:03:54.916Z,32.10
2018-03-03T16:06:24.334Z,35.57
2018-03-03T16:08:53.459Z,34.83
2018-03-03T16:11:21.917Z,31.07
2018-03-03T16:13:50.240Z,33.27
2018-03-03T16:16:18.754Z,34.10
2018-03-03T16:18:47.037Z,31.17
2018-03-03T16:21:15.478Z,31.37
2018-03-03T16:23:44.561Z,30.70
2018-03-03T16:26:12.862Z,32.50
2018-03-03T16:28:41.268Z,31.77
2018-03-03T16:31:11.677Z,32.93
2018-03-03T16:33:42.263Z,32.03
2018-03-03T16:38:44.783Z,32.50
2018-03-03T16:41:14.996Z,35.17
2018-03-03T16:43:44.301Z,33.10
2018-03-03T16:46:13.652Z,38.27
2018-03-03T16:48:44.110Z,35.90
2018-03-03T16:51:12.884Z,35.90
2018-03-03T16:53:41.257Z,35.60
2018-03-03T16:56:09.714Z,35.60
2018-03-03T16:58:40.170Z,35.43
2018-03-03T17:01:10.878Z,33.90
2018-03-03T17:03:39.192Z,36.70
2018-03-03T17:06:08.239Z,35.47
2018-03-03T17:08:36.624Z,38.67
2018-03-03T17:11:04.903Z,41.57
2018-03-03T17:13:33.346Z,38.27
2018-03-03T17:16:03.780Z,35.50
2018-03-03T17:18:32.431Z,35.20
2018-03-03T17:21:00.794Z,33.57
2018-03-03T17:23:29.117Z,33.33
2018-03-03T17:25:57.472Z,32.60
2018-03-03T17:28:25.831Z,34.53
2018-03-03T17:30:54.215Z,41.30
2018-03-03T17:33:22.588Z,39.93
2018-03-03T17:35:51.000Z,37.67
2018-03-03T17:38:19.359Z,35.00
2018-03-03T17:40:49.493Z,32.73
2018-03-03T17:43:17.863Z,33.87
2018-03-03T17:45:49.815Z,32.80
2018-03-03T17:48:21.100Z,33.37
2018-03-03T17:50:49.481Z,34.27
2018-03-03T17:53:17.934Z,33.70
2018-03-03T17:55:46.416Z,34.53
2018-03-03T17:58:15.182Z,33.30
2018-03-03T18:00:43.676Z,36.00
2018-03-03T18:03:12.345Z,34.53
2018-03-03T18:05:40.805Z,34.20
2018-03-03T18:08:09.253Z,36.80
2018-03-03T18:10:38.110Z,36.47
2018-03-03T18:13:09.102Z,36.20
2018-03-03T18:15:37.650Z,34.50
2018-03-03T18:18:06.098Z,36.20
2018-03-03T18:20:36.745Z,32.73
2018-03-03T18:23:07.686Z,35.70
2018-03-03T18:25:37.036Z,35.97
2018-03-03T18:28:06.133Z,35.27
2018-03-03T18:30:40.384Z,38.60
2018-03-03T18:33:09.553Z,37.90
2018-03-03T18:35:40.134Z,37.30
2018-03-03T18:38:11.055Z,38.07
2018-03-03T18:40:40.236Z,39.20
2018-03-03T18:43:09.531Z,38.77
2018-03-03T18:45:38.948Z,38.23
2018-03-03T18:48:09.199Z,40.30
2018-03-03T18:50:40.116Z,40.23
2018-03-03T18:53:09.309Z,41.20
2018-03-03T18:55:37.671Z,41.17
2018-03-03T18:58:06.761Z,39.30
2018-03-03T19:00:37.104Z,37.97
2018-03-03T19:03:10.687Z,38.47
2018-03-03T19:05:41.203Z,40.67
2018-03-03T19:08:10.540Z,40.53
2018-03-03T19:10:39.020Z,38.00
2018-03-03T19:13:07.706Z,37.40
2018-03-03T19:15:36.168Z,38.60
2018-03-03T19:18:05.317Z,38.00
2018-03-03T19:20:34.496Z,38.47
2018-03-03T19:23:02.912Z,39.50
2018-03-03T19:25:32.162Z,40.47
2018-03-03T19:28:00.543Z,40.83
2018-03-03T19:30:29.753Z,43.43
2018-03-03T19:33:00.696Z,43.33
2018-03-03T19:35:30.589Z,45.63
2018-03-03T19:37:59.690Z,46.30
2018-03-03T19:40:28.107Z,44.10
2018-03-03T19:42:56.787Z,44.93
2018-03-03T19:45:27.409Z,46.17
2018-03-03T19:47:55.898Z,46.30
2018-03-03T19:50:24.493Z,50.10
2018-03-03T19:52:53.785Z,49.67
2018-03-03T19:55:22.506Z,50.20
2018-03-03T19:57:50.996Z,48.50
2018-03-03T20:00:20.260Z,47.90
2018-03-03T20:02:54.647Z,48.50
2018-03-03T20:05:23.135Z,47.00
2018-03-03T20:07:52.501Z,49.20
2018-03-03T20:10:23.061Z,52.80
2018-03-03T20:12:53.909Z,52.27
2018-03-03T20:15:22.472Z,50.30
2018-03-03T20:17:53.617Z,53.40
2018-03-03T20:20:23.797Z,60.00
2018-03-03T20:22:52.249Z,56.70
2018-03-03T20:25:20.667Z,58.40
2018-03-03T20:27:49.077Z,57.60
2018-03-03T20:30:17.798Z,49.13
2018-03-03T20:32:46.453Z,49.87
2018-03-03T20:35:15.655Z,47.27
2018-03-03T20:37:44.096Z,48.57
2018-03-03T20:40:12.701Z,49.53
2018-03-03T20:42:44.351Z,47.87
2018-03-03T20:45:13.571Z,44.40
2018-03-03T20:47:42.062Z,41.67
2018-03-03T20:50:12.471Z,42.23
2018-03-03T20:52:41.669Z,40.40
2018-03-03T20:55:13.345Z,40.63
2018-03-03T20:57:44.394Z,44.70
2018-03-03T21:00:12.817Z,39.83
2018-03-03T21:02:41.309Z,40.50
2018-03-03T21:05:10.633Z,42.40
2018-03-03T21:07:39.041Z,39.80
2018-03-03T21:10:09.177Z,41.53
2018-03-03T21:12:43.354Z,42.83
2018-03-03T21:15:11.584Z,43.50
2018-03-03T21:17:39.973Z,42.23
2018-03-03T21:20:08.290Z,42.90
2018-03-03T21:22:36.668Z,44.87
2018-03-03T21:25:05.912Z,46.73
2018-03-03T21:27:35.962Z,44.37
2018-03-03T21:30:06.095Z,42.63
2018-03-03T21:32:35.546Z,40.83
2018-03-03T21:35:04.644Z,43.40
2018-03-03T21:37:33.130Z,43.83
2018-03-03T21:40:01.439Z,43.63
2018-03-03T21:42:29.945Z,46.50
2018-03-03T21:44:58.415Z,41.50
2018-03-03T21:47:27.474Z,39.70
2018-03-03T21:49:57.569Z,40.13
2018-03-03T21:52:27.561Z,39.40
2018-03-03T21:54:55.989Z,40.57
2018-03-03T21:57:25.205Z,39.27
2018-03-03T21:59:53.601Z,40.70
2018-03-03T22:02:21.982Z,44.30
2018-03-03T22:04:51.897Z,41.20
2018-03-03T22:07:20.333Z,40.20
2018-03-03T22:09:50.443Z,42.53
2018-03-03T22:12:19.889Z,41.60
2018-03-03T22:14:48.256Z,41.40
2018-03-03T22:17:18.354Z,42.80
2018-03-03T22:19:47.491Z,41.20
2018-03-03T22:22:16.025Z,43.00
2018-03-03T22:24:46.041Z,39.57
2018-03-03T22:27:14.428Z,42.53
2018-03-03T22:29:42.832Z,42.17
2018-03-03T22:32:11.953Z,42.70
2018-03-03T22:34:40.415Z,41.77
2018-03-03T22:37:08.858Z,43.90
2018-03-03T22:39:37.202Z,46.10
2018-03-03T22:42:08.299Z,42.23
2018-03-03T22:44:36.841Z,41.03
2018-03-03T22:47:05.195Z,41.40
2018-03-03T22:49:33.502Z,40.50
2018-03-03T22:52:02.703Z,42.67
2018-03-03T22:54:31.018Z,41.43
2018-03-03T22:56:59.463Z,39.20
2018-03-03T22:59:29.522Z,39.00
2018-03-03T23:02:00.628Z,42.13
2018-03-03T23:04:29.819Z,41.90
2018-03-03T23:07:00.318Z,39.50
2018-03-03T23:09:30.370Z,39.27
2018-03-03T23:11:59.472Z,41.83
2018-03-03T23:14:28.498Z,38.53
2018-03-03T23:16:56.839Z,43.57
2018-03-03T23:19:26.898Z,43.00
2018-03-03T23:21:55.298Z,42.80
2018-03-03T23:24:24.647Z,44.10
2018-03-03T23:26:52.967Z,43.70
2018-03-03T23:29:24.036Z,45.10
2018-03-03T23:31:54.270Z,40.40
2018-03-03T23:34:22.758Z,43.77
2018-03-03T23:36:51.068Z,42.17
2018-03-03T23:39:19.548Z,40.27
2018-03-03T23:41:48.651Z,40.80
2018-03-03T23:44:18.746Z,39.80
2018-03-03T23:46:47.169Z,39.67
2018-03-03T23:49:15.944Z,39.70
2018-03-03T23:51:45.041Z,41.60
2018-03-03T23:54:13.371Z,41.63
2018-03-03T23:56:44.461Z,39.80
2018-03-03T23:59:12.936Z,41.87
